sensor_id;sensor_type;location;lat;lon;timestamp;P1;durP1;ratioP1;P2;durP2;ratioP2
80179;SDS011;69505;52.134;5.438;2023-08-08T00:00:27;9.48;;;2.60;;
80179;SDS011;69505;52.134;5.438;2023-08-08T00:02:54;8.60;;;2.47;;
80179;SDS011;69505;52.134;5.438;2023-08-08T00:05:21;10.65;;;2.03;;
80179;SDS011;69505;52.134;5.438;2023-08-08T00:07:48;7.82;;;2.35;;
80179;SDS011;69505;52.134;5.438;2023-08-08T00:10:14;9.77;;;2.70;;
80179;SDS011;69505;52.134;5.438;2023-08-08T00:12:41;9.90;;;2.45;;
80179;SDS011;69505;52.134;5.438;2023-08-08T00:15:08;9.25;;;2.13;;
80179;SDS011;69505;52.134;5.438;2023-08-08T00:17:35;6.20;;;2.13;;
80179;SDS011;69505;52.134;5.438;2023-08-08T00:20:01;10.30;;;2.42;;
80179;SDS011;69505;52.134;5.438;2023-08-08T00:22:28;6.20;;;2.08;;
80179;SDS011;69505;52.134;5.438;2023-08-08T00:24:55;8.25;;;1.80;;
80179;SDS011;69505;52.134;5.438;2023-08-08T00:27:22;7.78;;;2.40;;
80179;SDS011;69505;52.134;5.438;2023-08-08T00:29:48;5.80;;;1.83;;
80179;SDS011;69505;52.134;5.438;2023-08-08T00:32:17;10.32;;;2.53;;
80179;SDS011;69505;52.134;5.438;2023-08-08T00:34:43;7.30;;;2.20;;
80179;SDS011;69505;52.134;5.438;2023-08-08T00:37:10;5.38;;;1.83;;
80179;SDS011;69505;52.134;5.438;2023-08-08T00:39:37;9.15;;;2.40;;
80179;SDS011;69505;52.134;5.438;2023-08-08T00:42:04;8.55;;;1.92;;
80179;SDS011;69505;52.134;5.438;2023-08-08T00:44:31;5.50;;;2.15;;
80179;SDS011;69505;52.134;5.438;2023-08-08T00:46:57;8.80;;;2.20;;
80179;SDS011;69505;52.134;5.438;2023-08-08T00:49:24;4.95;;;2.00;;
80179;SDS011;69505;52.134;5.438;2023-08-08T00:51:51;4.97;;;1.92;;
80179;SDS011;69505;52.134;5.438;2023-08-08T00:54:18;6.93;;;2.13;;
80179;SDS011;69505;52.134;5.438;2023-08-08T00:56:46;8.10;;;1.83;;
80179;SDS011;69505;52.134;5.438;2023-08-08T00:59:12;5.07;;;1.63;;
80179;SDS011;69505;52.134;5.438;2023-08-08T01:01:40;7.72;;;1.80;;
80179;SDS011;69505;52.134;5.438;2023-08-08T01:04:07;6.97;;;1.58;;
80179;SDS011;69505;52.134;5.438;2023-08-08T01:06:37;8.63;;;1.75;;
80179;SDS011;69505;52.134;5.438;2023-08-08T01:09:25;11.07;;;2.00;;
80179;SDS011;69505;52.134;5.438;2023-08-08T01:11:59;5.07;;;1.67;;
80179;SDS011;69505;52.134;5.438;2023-08-08T01:14:28;5.90;;;1.60;;
80179;SDS011;69505;52.134;5.438;2023-08-08T01:16:56;5.15;;;1.55;;
80179;SDS011;69505;52.134;5.438;2023-08-08T01:19:26;9.70;;;1.92;;
80179;SDS011;69505;52.134;5.438;2023-08-08T01:21:57;9.98;;;2.25;;
80179;SDS011;69505;52.134;5.438;2023-08-08T01:24:28;7.88;;;1.63;;
80179;SDS011;69505;52.134;5.438;2023-08-08T01:26:59;3.58;;;1.50;;
80179;SDS011;69505;52.134;5.438;2023-08-08T01:29:27;9.40;;;1.90;;
80179;SDS011;69505;52.134;5.438;2023-08-08T01:31:54;3.97;;;1.90;;
80179;SDS011;69505;52.134;5.438;2023-08-08T01:34:21;5.47;;;1.45;;
80179;SDS011;69505;52.134;5.438;2023-08-08T01:39:35;5.60;;;2.22;;
80179;SDS011;69505;52.134;5.438;2023-08-08T01:42:05;9.57;;;2.00;;
80179;SDS011;69505;52.134;5.438;2023-08-08T01:44:33;7.22;;;1.67;;
80179;SDS011;69505;52.134;5.438;2023-08-08T01:47:01;6.43;;;1.70;;
80179;SDS011;69505;52.134;5.438;2023-08-08T01:49:28;8.02;;;2.35;;
80179;SDS011;69505;52.134;5.438;2023-08-08T01:51:55;6.80;;;1.63;;
80179;SDS011;69505;52.134;5.438;2023-08-08T01:54:22;13.73;;;1.85;;
80179;SDS011;69505;52.134;5.438;2023-08-08T01:56:49;10.25;;;2.35;;
80179;SDS011;69505;52.134;5.438;2023-08-08T01:59:16;7.05;;;2.30;;
80179;SDS011;69505;52.134;5.438;2023-08-08T02:01:43;5.82;;;1.75;;
80179;SDS011;69505;52.134;5.438;2023-08-08T02:04:11;5.35;;;1.63;;
80179;SDS011;69505;52.134;5.438;2023-08-08T02:06:38;5.07;;;1.38;;
80179;SDS011;69505;52.134;5.438;2023-08-08T02:09:06;7.32;;;1.70;;
80179;SDS011;69505;52.134;5.438;2023-08-08T02:11:33;12.65;;;2.15;;
80179;SDS011;69505;52.134;5.438;2023-08-08T02:14:00;6.25;;;1.83;;
80179;SDS011;69505;52.134;5.438;2023-08-08T02:16:27;6.97;;;1.67;;
80179;SDS011;69505;52.134;5.438;2023-08-08T02:18:54;7.57;;;2.05;;
80179;SDS011;69505;52.134;5.438;2023-08-08T02:21:21;7.32;;;1.80;;
80179;SDS011;69505;52.134;5.438;2023-08-08T02:23:48;9.38;;;2.03;;
80179;SDS011;69505;52.134;5.438;2023-08-08T02:26:15;11.25;;;2.10;;
80179;SDS011;69505;52.134;5.438;2023-08-08T02:28:42;7.88;;;1.92;;
80179;SDS011;69505;52.134;5.438;2023-08-08T02:31:09;6.65;;;1.73;;
80179;SDS011;69505;52.134;5.438;2023-08-08T02:33:39;6.93;;;1.67;;
80179;SDS011;69505;52.134;5.438;2023-08-08T02:36:06;5.20;;;1.70;;
80179;SDS011;69505;52.134;5.438;2023-08-08T02:38:33;9.52;;;1.90;;
80179;SDS011;69505;52.134;5.438;2023-08-08T02:41:00;6.80;;;1.92;;
80179;SDS011;69505;52.134;5.438;2023-08-08T02:43:27;4.95;;;1.85;;
80179;SDS011;69505;52.134;5.438;2023-08-08T02:45:54;8.00;;;2.22;;
80179;SDS011;69505;52.134;5.438;2023-08-08T02:48:21;8.25;;;1.80;;
80179;SDS011;69505;52.134;5.438;2023-08-08T02:50:48;6.75;;;1.75;;
80179;SDS011;69505;52.134;5.438;2023-08-08T02:53:15;7.80;;;2.15;;
80179;SDS011;69505;52.134;5.438;2023-08-08T02:55:41;13.40;;;2.13;;
80179;SDS011;69505;52.134;5.438;2023-08-08T02:58:09;11.25;;;1.80;;
80179;SDS011;69505;52.134;5.438;2023-08-08T03:00:35;7.28;;;1.83;;
80179;SDS011;69505;52.134;5.438;2023-08-08T03:03:03;9.88;;;1.75;;
80179;SDS011;69505;52.134;5.438;2023-08-08T03:05:31;8.85;;;2.10;;
80179;SDS011;69505;52.134;5.438;2023-08-08T03:07:58;7.07;;;2.30;;
80179;SDS011;69505;52.134;5.438;2023-08-08T03:10:25;11.35;;;2.00;;
80179;SDS011;69505;52.134;5.438;2023-08-08T03:12:52;9.57;;;2.15;;
80179;SDS011;69505;52.134;5.438;2023-08-08T03:15:20;9.35;;;2.10;;
80179;SDS011;69505;52.134;5.438;2023-08-08T03:17:47;6.90;;;1.77;;
80179;SDS011;69505;52.134;5.438;2023-08-08T03:20:14;4.43;;;1.52;;
80179;SDS011;69505;52.134;5.438;2023-08-08T03:22:41;5.20;;;1.77;;
80179;SDS011;69505;52.134;5.438;2023-08-08T03:25:08;7.85;;;1.98;;
80179;SDS011;69505;52.134;5.438;2023-08-08T03:27:36;11.18;;;2.42;;
80179;SDS011;69505;52.134;5.438;2023-08-08T03:30:03;5.75;;;1.95;;
80179;SDS011;69505;52.134;5.438;2023-08-08T03:32:31;5.57;;;2.17;;
80179;SDS011;69505;52.134;5.438;2023-08-08T03:34:58;6.07;;;2.10;;
80179;SDS011;69505;52.134;5.438;2023-08-08T03:37:25;9.80;;;2.47;;
80179;SDS011;69505;52.134;5.438;2023-08-08T03:39:52;10.35;;;2.80;;
80179;SDS011;69505;52.134;5.438;2023-08-08T03:42:18;8.68;;;2.22;;
80179;SDS011;69505;52.134;5.438;2023-08-08T03:44:46;5.57;;;3.13;;
80179;SDS011;69505;52.134;5.438;2023-08-08T03:47:12;6.65;;;2.42;;
80179;SDS011;69505;52.134;5.438;2023-08-08T03:49:45;7.60;;;1.95;;
80179;SDS011;69505;52.134;5.438;2023-08-08T03:52:12;10.98;;;2.88;;
80179;SDS011;69505;52.134;5.438;2023-08-08T03:54:40;5.82;;;2.00;;
80179;SDS011;69505;52.134;5.438;2023-08-08T03:57:07;10.63;;;2.25;;
80179;SDS011;69505;52.134;5.438;2023-08-08T03:59:33;5.13;;;2.22;;
80179;SDS011;69505;52.134;5.438;2023-08-08T04:02:00;7.18;;;2.83;;
80179;SDS011;69505;52.134;5.438;2023-08-08T04:04:27;6.63;;;2.30;;
80179;SDS011;69505;52.134;5.438;2023-08-08T04:06:54;6.65;;;2.80;;
80179;SDS011;69505;52.134;5.438;2023-08-08T04:09:21;7.78;;;2.63;;
80179;SDS011;69505;52.134;5.438;2023-08-08T04:11:48;8.43;;;2.55;;
80179;SDS011;69505;52.134;5.438;2023-08-08T04:14:14;6.68;;;2.53;;
80179;SDS011;69505;52.134;5.438;2023-08-08T04:16:41;7.25;;;2.67;;
80179;SDS011;69505;52.134;5.438;2023-08-08T04:19:08;7.80;;;2.75;;
80179;SDS011;69505;52.134;5.438;2023-08-08T04:21:35;9.30;;;2.53;;
80179;SDS011;69505;52.134;5.438;2023-08-08T04:24:02;8.40;;;2.60;;
80179;SDS011;69505;52.134;5.438;2023-08-08T04:26:29;6.15;;;2.53;;
80179;SDS011;69505;52.134;5.438;2023-08-08T04:28:56;6.00;;;2.42;;
80179;SDS011;69505;52.134;5.438;2023-08-08T04:31:23;11.45;;;2.80;;
80179;SDS011;69505;52.134;5.438;2023-08-08T04:33:52;9.35;;;2.15;;
80179;SDS011;69505;52.134;5.438;2023-08-08T04:36:27;7.35;;;2.17;;
80179;SDS011;69505;52.134;5.438;2023-08-08T04:38:55;10.52;;;2.08;;
80179;SDS011;69505;52.134;5.438;2023-08-08T04:41:22;6.03;;;2.45;;
80179;SDS011;69505;52.134;5.438;2023-08-08T04:43:50;9.00;;;2.45;;
80179;SDS011;69505;52.134;5.438;2023-08-08T04:46:16;6.10;;;2.30;;
80179;SDS011;69505;52.134;5.438;2023-08-08T04:48:43;4.60;;;2.25;;
80179;SDS011;69505;52.134;5.438;2023-08-08T04:51:10;9.23;;;2.20;;
80179;SDS011;69505;52.134;5.438;2023-08-08T04:53:37;3.63;;;2.10;;
80179;SDS011;69505;52.134;5.438;2023-08-08T04:56:04;9.63;;;2.35;;
80179;SDS011;69505;52.134;5.438;2023-08-08T04:58:31;9.20;;;2.65;;
80179;SDS011;69505;52.134;5.438;2023-08-08T05:00:58;6.95;;;2.15;;
80179;SDS011;69505;52.134;5.438;2023-08-08T05:03:25;6.88;;;2.05;;
80179;SDS011;69505;52.134;5.438;2023-08-08T05:05:52;6.47;;;2.25;;
80179;SDS011;69505;52.134;5.438;2023-08-08T05:08:19;8.18;;;2.60;;
80179;SDS011;69505;52.134;5.438;2023-08-08T05:10:46;6.15;;;2.10;;
80179;SDS011;69505;52.134;5.438;2023-08-08T05:13:12;5.20;;;2.30;;
80179;SDS011;69505;52.134;5.438;2023-08-08T05:15:39;8.00;;;1.95;;
80179;SDS011;69505;52.134;5.438;2023-08-08T05:18:06;4.68;;;2.03;;
80179;SDS011;69505;52.134;5.438;2023-08-08T05:20:33;5.60;;;1.75;;
80179;SDS011;69505;52.134;5.438;2023-08-08T05:23:00;6.78;;;1.98;;
80179;SDS011;69505;52.134;5.438;2023-08-08T05:25:26;5.10;;;2.17;;
80179;SDS011;69505;52.134;5.438;2023-08-08T05:27:53;7.38;;;2.22;;
80179;SDS011;69505;52.134;5.438;2023-08-08T05:30:20;6.85;;;2.72;;
80179;SDS011;69505;52.134;5.438;2023-08-08T05:32:48;6.10;;;1.98;;
80179;SDS011;69505;52.134;5.438;2023-08-08T05:35:14;5.70;;;2.05;;
80179;SDS011;69505;52.134;5.438;2023-08-08T05:37:41;7.07;;;1.83;;
80179;SDS011;69505;52.134;5.438;2023-08-08T05:40:08;9.60;;;2.72;;
80179;SDS011;69505;52.134;5.438;2023-08-08T05:42:37;8.25;;;2.28;;
80179;SDS011;69505;52.134;5.438;2023-08-08T05:45:04;5.53;;;1.83;;
80179;SDS011;69505;52.134;5.438;2023-08-08T05:47:32;3.20;;;1.42;;
80179;SDS011;69505;52.134;5.438;2023-08-08T05:49:59;4.63;;;2.03;;
80179;SDS011;69505;52.134;5.438;2023-08-08T05:52:25;6.32;;;1.80;;
80179;SDS011;69505;52.134;5.438;2023-08-08T05:54:52;7.63;;;1.67;;
80179;SDS011;69505;52.134;5.438;2023-08-08T05:57:19;8.48;;;1.75;;
80179;SDS011;69505;52.134;5.438;2023-08-08T05:59:48;7.43;;;1.80;;
80179;SDS011;69505;52.134;5.438;2023-08-08T06:02:15;6.68;;;1.58;;
80179;SDS011;69505;52.134;5.438;2023-08-08T06:04:42;4.20;;;1.70;;
80179;SDS011;69505;52.134;5.438;2023-08-08T06:07:08;7.13;;;1.55;;
80179;SDS011;69505;52.134;5.438;2023-08-08T06:09:36;9.77;;;1.35;;
80179;SDS011;69505;52.134;5.438;2023-08-08T06:12:04;2.88;;;1.20;;
80179;SDS011;69505;52.134;5.438;2023-08-08T06:14:31;5.53;;;1.52;;
80179;SDS011;69505;52.134;5.438;2023-08-08T06:16:57;7.20;;;1.90;;
80179;SDS011;69505;52.134;5.438;2023-08-08T06:19:24;2.95;;;1.10;;
80179;SDS011;69505;52.134;5.438;2023-08-08T06:21:51;4.38;;;1.38;;
80179;SDS011;69505;52.134;5.438;2023-08-08T06:24:17;3.53;;;0.88;;
80179;SDS011;69505;52.134;5.438;2023-08-08T06:26:44;5.20;;;1.33;;
80179;SDS011;69505;52.134;5.438;2023-08-08T06:29:11;4.05;;;1.20;;
80179;SDS011;69505;52.134;5.438;2023-08-08T06:31:38;4.43;;;1.05;;
80179;SDS011;69505;52.134;5.438;2023-08-08T06:34:05;3.00;;;0.93;;
80179;SDS011;69505;52.134;5.438;2023-08-08T06:36:32;3.28;;;1.00;;
80179;SDS011;69505;52.134;5.438;2023-08-08T06:38:58;8.10;;;1.23;;
80179;SDS011;69505;52.134;5.438;2023-08-08T06:41:25;4.07;;;1.65;;
80179;SDS011;69505;52.134;5.438;2023-08-08T06:43:51;2.60;;;1.02;;
80179;SDS011;69505;52.134;5.438;2023-08-08T06:46:18;3.97;;;1.20;;
80179;SDS011;69505;52.134;5.438;2023-08-08T06:48:47;2.55;;;0.88;;
80179;SDS011;69505;52.134;5.438;2023-08-08T06:51:14;3.00;;;0.90;;
80179;SDS011;69505;52.134;5.438;2023-08-08T06:53:41;5.00;;;0.82;;
80179;SDS011;69505;52.134;5.438;2023-08-08T06:56:07;2.42;;;0.70;;
80179;SDS011;69505;52.134;5.438;2023-08-08T06:58:34;1.70;;;0.52;;
80179;SDS011;69505;52.134;5.438;2023-08-08T07:01:00;3.00;;;0.88;;
80179;SDS011;69505;52.134;5.438;2023-08-08T07:03:27;3.65;;;1.13;;
80179;SDS011;69505;52.134;5.438;2023-08-08T07:05:54;3.72;;;0.93;;
80179;SDS011;69505;52.134;5.438;2023-08-08T07:08:21;2.97;;;0.57;;
80179;SDS011;69505;52.134;5.438;2023-08-08T07:10:48;3.53;;;0.68;;
80179;SDS011;69505;52.134;5.438;2023-08-08T07:13:14;3.55;;;0.60;;
80179;SDS011;69505;52.134;5.438;2023-08-08T07:15:41;5.20;;;0.68;;
80179;SDS011;69505;52.134;5.438;2023-08-08T07:18:08;2.53;;;0.73;;
80179;SDS011;69505;52.134;5.438;2023-08-08T07:20:35;9.68;;;1.25;;
80179;SDS011;69505;52.134;5.438;2023-08-08T07:23:02;4.70;;;0.82;;
80179;SDS011;69505;52.134;5.438;2023-08-08T07:25:28;8.15;;;0.70;;
80179;SDS011;69505;52.134;5.438;2023-08-08T07:27:55;4.78;;;0.63;;
80179;SDS011;69505;52.134;5.438;2023-08-08T07:30:22;3.95;;;0.93;;
80179;SDS011;69505;52.134;5.438;2023-08-08T07:32:48;4.25;;;0.68;;
80179;SDS011;69505;52.134;5.438;2023-08-08T07:35:15;3.22;;;0.52;;
80179;SDS011;69505;52.134;5.438;2023-08-08T07:37:42;3.38;;;0.93;;
80179;SDS011;69505;52.134;5.438;2023-08-08T07:40:16;4.68;;;0.55;;
80179;SDS011;69505;52.134;5.438;2023-08-08T07:42:47;2.75;;;0.75;;
80179;SDS011;69505;52.134;5.438;2023-08-08T07:45:14;3.90;;;0.70;;
80179;SDS011;69505;52.134;5.438;2023-08-08T07:47:42;1.88;;;0.52;;
80179;SDS011;69505;52.134;5.438;2023-08-08T07:50:09;3.63;;;0.63;;
80179;SDS011;69505;52.134;5.438;2023-08-08T07:52:36;3.00;;;0.60;;
80179;SDS011;69505;52.134;5.438;2023-08-08T07:55:03;1.98;;;0.63;;
80179;SDS011;69505;52.134;5.438;2023-08-08T07:57:31;4.00;;;0.57;;
80179;SDS011;69505;52.134;5.438;2023-08-08T08:00:04;4.15;;;0.98;;
80179;SDS011;69505;52.134;5.438;2023-08-08T08:02:39;2.80;;;0.63;;
80179;SDS011;69505;52.134;5.438;2023-08-08T08:05:06;3.50;;;0.70;;
80179;SDS011;69505;52.134;5.438;2023-08-08T08:07:34;3.08;;;0.55;;
80179;SDS011;69505;52.134;5.438;2023-08-08T08:10:02;1.63;;;0.40;;
80179;SDS011;69505;52.134;5.438;2023-08-08T08:12:30;3.33;;;0.40;;
80179;SDS011;69505;52.134;5.438;2023-08-08T08:14:58;1.52;;;0.50;;
80179;SDS011;69505;52.134;5.438;2023-08-08T08:17:25;4.22;;;0.57;;
80179;SDS011;69505;52.134;5.438;2023-08-08T08:19:51;3.25;;;0.40;;
80179;SDS011;69505;52.134;5.438;2023-08-08T08:22:18;1.80;;;0.20;;
80179;SDS011;69505;52.134;5.438;2023-08-08T08:24:45;2.00;;;0.30;;
80179;SDS011;69505;52.134;5.438;2023-08-08T08:27:12;2.45;;;0.30;;
80179;SDS011;69505;52.134;5.438;2023-08-08T08:29:39;2.00;;;0.30;;
80179;SDS011;69505;52.134;5.438;2023-08-08T08:32:06;4.13;;;0.43;;
80179;SDS011;69505;52.134;5.438;2023-08-08T08:34:33;3.97;;;0.50;;
80179;SDS011;69505;52.134;5.438;2023-08-08T08:36:59;1.50;;;0.40;;
80179;SDS011;69505;52.134;5.438;2023-08-08T08:39:26;2.58;;;0.38;;
80179;SDS011;69505;52.134;5.438;2023-08-08T08:41:54;3.53;;;0.50;;
80179;SDS011;69505;52.134;5.438;2023-08-08T08:44:28;2.83;;;0.30;;
80179;SDS011;69505;52.134;5.438;2023-08-08T08:47:01;2.35;;;0.68;;
80179;SDS011;69505;52.134;5.438;2023-08-08T08:49:32;2.75;;;0.47;;
80179;SDS011;69505;52.134;5.438;2023-08-08T08:52:01;1.60;;;0.30;;
80179;SDS011;69505;52.134;5.438;2023-08-08T08:54:28;2.53;;;0.40;;
80179;SDS011;69505;52.134;5.438;2023-08-08T08:56:56;1.75;;;0.38;;
80179;SDS011;69505;52.134;5.438;2023-08-08T08:59:23;0.75;;;0.30;;
80179;SDS011;69505;52.134;5.438;2023-08-08T09:01:51;2.53;;;0.65;;
80179;SDS011;69505;52.134;5.438;2023-08-08T09:04:19;1.83;;;0.40;;
80179;SDS011;69505;52.134;5.438;2023-08-08T09:06:48;2.00;;;0.43;;
80179;SDS011;69505;52.134;5.438;2023-08-08T09:09:16;3.30;;;0.40;;
80179;SDS011;69505;52.134;5.438;2023-08-08T09:11:50;1.75;;;0.45;;
80179;SDS011;69505;52.134;5.438;2023-08-08T09:14:22;2.53;;;0.40;;
80179;SDS011;69505;52.134;5.438;2023-08-08T09:16:51;2.35;;;0.70;;
80179;SDS011;69505;52.134;5.438;2023-08-08T09:19:20;0.90;;;0.28;;
80179;SDS011;69505;52.134;5.438;2023-08-08T09:21:48;1.58;;;0.35;;
80179;SDS011;69505;52.134;5.438;2023-08-08T09:24:15;2.75;;;0.45;;
80179;SDS011;69505;52.134;5.438;2023-08-08T09:26:42;2.78;;;0.43;;
80179;SDS011;69505;52.134;5.438;2023-08-08T09:29:11;3.25;;;0.45;;
80179;SDS011;69505;52.134;5.438;2023-08-08T09:31:39;1.63;;;0.30;;
80179;SDS011;69505;52.134;5.438;2023-08-08T09:34:06;1.60;;;0.35;;
80179;SDS011;69505;52.134;5.438;2023-08-08T09:36:33;2.83;;;0.52;;
80179;SDS011;69505;52.134;5.438;2023-08-08T09:39:01;1.42;;;0.30;;
80179;SDS011;69505;52.134;5.438;2023-08-08T09:41:28;1.58;;;0.45;;
80179;SDS011;69505;52.134;5.438;2023-08-08T09:43:55;3.42;;;0.40;;
80179;SDS011;69505;52.134;5.438;2023-08-08T09:46:22;1.83;;;0.30;;
80179;SDS011;69505;52.134;5.438;2023-08-08T09:48:49;2.03;;;0.20;;
80179;SDS011;69505;52.134;5.438;2023-08-08T09:51:16;2.38;;;0.40;;
80179;SDS011;69505;52.134;5.438;2023-08-08T09:53:43;1.42;;;0.40;;
80179;SDS011;69505;52.134;5.438;2023-08-08T09:56:11;1.30;;;0.32;;
80179;SDS011;69505;52.134;5.438;2023-08-08T09:58:40;2.60;;;0.43;;
80179;SDS011;69505;52.134;5.438;2023-08-08T10:01:08;2.47;;;0.80;;
80179;SDS011;69505;52.134;5.438;2023-08-08T10:03:35;2.80;;;0.55;;
80179;SDS011;69505;52.134;5.438;2023-08-08T10:06:04;1.88;;;0.43;;
80179;SDS011;69505;52.134;5.438;2023-08-08T10:08:31;2.72;;;0.60;;
80179;SDS011;69505;52.134;5.438;2023-08-08T10:10:58;1.50;;;0.40;;
80179;SDS011;69505;52.134;5.438;2023-08-08T10:13:26;1.23;;;0.20;;
80179;SDS011;69505;52.134;5.438;2023-08-08T10:15:53;3.20;;;0.73;;
80179;SDS011;69505;52.134;5.438;2023-08-08T10:18:22;1.13;;;0.30;;
80179;SDS011;69505;52.134;5.438;2023-08-08T10:20:49;1.77;;;0.50;;
80179;SDS011;69505;52.134;5.438;2023-08-08T10:23:17;4.68;;;0.40;;
80179;SDS011;69505;52.134;5.438;2023-08-08T10:25:48;1.23;;;0.70;;
80179;SDS011;69505;52.134;5.438;2023-08-08T10:28:17;3.17;;;0.38;;
80179;SDS011;69505;52.134;5.438;2023-08-08T10:33:19;3.13;;;0.50;;
80179;SDS011;69505;52.134;5.438;2023-08-08T10:35:56;1.52;;;0.30;;
80179;SDS011;69505;52.134;5.438;2023-08-08T10:38:25;2.00;;;0.50;;
80179;SDS011;69505;52.134;5.438;2023-08-08T10:40:59;2.80;;;0.60;;
80179;SDS011;69505;52.134;5.438;2023-08-08T10:43:29;2.13;;;0.50;;
80179;SDS011;69505;52.134;5.438;2023-08-08T10:45:56;2.05;;;0.50;;
80179;SDS011;69505;52.134;5.438;2023-08-08T10:48:48;2.10;;;0.32;;
80179;SDS011;69505;52.134;5.438;2023-08-08T10:51:16;1.10;;;0.30;;
80179;SDS011;69505;52.134;5.438;2023-08-08T10:53:43;3.45;;;0.30;;
80179;SDS011;69505;52.134;5.438;2023-08-08T10:56:12;2.72;;;0.50;;
80179;SDS011;69505;52.134;5.438;2023-08-08T10:58:40;2.63;;;0.40;;
80179;SDS011;69505;52.134;5.438;2023-08-08T11:01:09;2.35;;;0.45;;
80179;SDS011;69505;52.134;5.438;2023-08-08T11:03:39;1.58;;;0.20;;
80179;SDS011;69505;52.134;5.438;2023-08-08T11:06:07;0.90;;;0.22;;
80179;SDS011;69505;52.134;5.438;2023-08-08T11:08:35;4.53;;;0.50;;
80179;SDS011;69505;52.134;5.438;2023-08-08T11:11:05;1.40;;;0.30;;
80179;SDS011;69505;52.134;5.438;2023-08-08T11:13:32;2.20;;;0.38;;
80179;SDS011;69505;52.134;5.438;2023-08-08T11:15:59;1.90;;;0.30;;
80179;SDS011;69505;52.134;5.438;2023-08-08T11:18:28;6.65;;;0.60;;
80179;SDS011;69505;52.134;5.438;2023-08-08T11:20:55;2.47;;;0.30;;
80179;SDS011;69505;52.134;5.438;2023-08-08T11:23:38;3.22;;;0.30;;
80179;SDS011;69505;52.134;5.438;2023-08-08T11:26:05;2.15;;;0.30;;
80179;SDS011;69505;52.134;5.438;2023-08-08T11:28:34;1.25;;;0.30;;
80179;SDS011;69505;52.134;5.438;2023-08-08T11:31:01;2.10;;;0.43;;
80179;SDS011;69505;52.134;5.438;2023-08-08T11:33:28;1.38;;;0.40;;
80179;SDS011;69505;52.134;5.438;2023-08-08T11:35:55;1.80;;;0.40;;
80179;SDS011;69505;52.134;5.438;2023-08-08T11:38:22;1.20;;;0.40;;
80179;SDS011;69505;52.134;5.438;2023-08-08T11:40:50;1.90;;;0.40;;
80179;SDS011;69505;52.134;5.438;2023-08-08T11:45:45;1.33;;;0.30;;
80179;SDS011;69505;52.134;5.438;2023-08-08T11:48:15;2.30;;;0.20;;
80179;SDS011;69505;52.134;5.438;2023-08-08T11:50:42;0.85;;;0.20;;
80179;SDS011;69505;52.134;5.438;2023-08-08T11:53:10;1.80;;;0.35;;
80179;SDS011;69505;52.134;5.438;2023-08-08T11:55:38;1.95;;;0.40;;
80179;SDS011;69505;52.134;5.438;2023-08-08T11:58:04;1.35;;;0.28;;
80179;SDS011;69505;52.134;5.438;2023-08-08T12:00:32;2.63;;;0.47;;
80179;SDS011;69505;52.134;5.438;2023-08-08T12:03:00;1.27;;;0.32;;
80179;SDS011;69505;52.134;5.438;2023-08-08T12:05:28;2.53;;;0.55;;
80179;SDS011;69505;52.134;5.438;2023-08-08T12:07:55;1.92;;;0.32;;
80179;SDS011;69505;52.134;5.438;2023-08-08T12:10:22;1.80;;;0.40;;
80179;SDS011;69505;52.134;5.438;2023-08-08T12:12:53;2.35;;;0.40;;
80179;SDS011;69505;52.134;5.438;2023-08-08T12:15:23;3.00;;;0.75;;
80179;SDS011;69505;52.134;5.438;2023-08-08T12:17:49;2.38;;;0.20;;
80179;SDS011;69505;52.134;5.438;2023-08-08T12:20:16;1.13;;;0.25;;
80179;SDS011;69505;52.134;5.438;2023-08-08T12:22:43;2.08;;;0.30;;
80179;SDS011;69505;52.134;5.438;2023-08-08T12:25:10;2.65;;;0.40;;
80179;SDS011;69505;52.134;5.438;2023-08-08T12:27:37;3.03;;;0.32;;
80179;SDS011;69505;52.134;5.438;2023-08-08T12:30:06;1.92;;;0.40;;
80179;SDS011;69505;52.134;5.438;2023-08-08T12:32:33;2.92;;;0.40;;
80179;SDS011;69505;52.134;5.438;2023-08-08T12:35:00;1.58;;;0.30;;
80179;SDS011;69505;52.134;5.438;2023-08-08T12:37:26;1.75;;;0.30;;
80179;SDS011;69505;52.134;5.438;2023-08-08T12:39:53;3.15;;;0.50;;
80179;SDS011;69505;52.134;5.438;2023-08-08T12:42:19;5.65;;;0.50;;
80179;SDS011;69505;52.134;5.438;2023-08-08T12:44:46;1.02;;;0.45;;
80179;SDS011;69505;52.134;5.438;2023-08-08T12:47:13;3.42;;;0.30;;
80179;SDS011;69505;52.134;5.438;2023-08-08T12:49:41;1.80;;;0.40;;
80179;SDS011;69505;52.134;5.438;2023-08-08T12:52:08;5.55;;;0.40;;
80179;SDS011;69505;52.134;5.438;2023-08-08T12:54:35;6.43;;;0.80;;
80179;SDS011;69505;52.134;5.438;2023-08-08T12:57:02;2.22;;;0.63;;
80179;SDS011;69505;52.134;5.438;2023-08-08T12:59:30;1.88;;;0.40;;
80179;SDS011;69505;52.134;5.438;2023-08-08T13:01:56;1.77;;;0.38;;
80179;SDS011;69505;52.134;5.438;2023-08-08T13:04:24;3.10;;;0.60;;
80179;SDS011;69505;52.134;5.438;2023-08-08T13:06:51;2.88;;;0.40;;
80179;SDS011;69505;52.134;5.438;2023-08-08T13:09:18;1.98;;;0.40;;
80179;SDS011;69505;52.134;5.438;2023-08-08T13:11:45;4.18;;;0.60;;
80179;SDS011;69505;52.134;5.438;2023-08-08T13:14:11;3.10;;;0.50;;
80179;SDS011;69505;52.134;5.438;2023-08-08T13:16:38;3.10;;;0.35;;
80179;SDS011;69505;52.134;5.438;2023-08-08T13:19:05;1.60;;;0.43;;
80179;SDS011;69505;52.134;5.438;2023-08-08T13:21:32;3.53;;;0.45;;
80179;SDS011;69505;52.134;5.438;2023-08-08T13:23:59;1.77;;;0.30;;
80179;SDS011;69505;52.134;5.438;2023-08-08T13:26:25;2.33;;;0.50;;
80179;SDS011;69505;52.134;5.438;2023-08-08T13:28:52;3.90;;;0.95;;
80179;SDS011;69505;52.134;5.438;2023-08-08T13:31:19;2.30;;;0.82;;
80179;SDS011;69505;52.134;5.438;2023-08-08T13:33:45;2.05;;;0.38;;
80179;SDS011;69505;52.134;5.438;2023-08-08T13:36:12;2.50;;;1.05;;
80179;SDS011;69505;52.134;5.438;2023-08-08T13:38:38;3.30;;;0.50;;
80179;SDS011;69505;52.134;5.438;2023-08-08T13:41:05;2.15;;;0.50;;
80179;SDS011;69505;52.134;5.438;2023-08-08T13:43:31;1.83;;;0.50;;
80179;SDS011;69505;52.134;5.438;2023-08-08T13:45:58;3.00;;;0.52;;
80179;SDS011;69505;52.134;5.438;2023-08-08T13:48:26;3.05;;;1.00;;
80179;SDS011;69505;52.134;5.438;2023-08-08T13:50:53;1.25;;;0.40;;
80179;SDS011;69505;52.134;5.438;2023-08-08T13:53:20;3.50;;;0.47;;
80179;SDS011;69505;52.134;5.438;2023-08-08T13:55:46;3.90;;;0.60;;
80179;SDS011;69505;52.134;5.438;2023-08-08T13:58:13;2.80;;;0.73;;
80179;SDS011;69505;52.134;5.438;2023-08-08T14:00:39;1.77;;;0.40;;
80179;SDS011;69505;52.134;5.438;2023-08-08T14:03:06;2.42;;;0.50;;
80179;SDS011;69505;52.134;5.438;2023-08-08T14:05:33;0.93;;;0.38;;
80179;SDS011;69505;52.134;5.438;2023-08-08T14:07:59;2.30;;;0.40;;
80179;SDS011;69505;52.134;5.438;2023-08-08T14:10:26;3.05;;;0.43;;
80179;SDS011;69505;52.134;5.438;2023-08-08T14:12:53;2.20;;;0.50;;
80179;SDS011;69505;52.134;5.438;2023-08-08T14:15:19;3.40;;;0.43;;
80179;SDS011;69505;52.134;5.438;2023-08-08T14:17:46;1.73;;;0.43;;
80179;SDS011;69505;52.134;5.438;2023-08-08T14:20:13;2.40;;;0.50;;
80179;SDS011;69505;52.134;5.438;2023-08-08T14:22:40;2.15;;;0.50;;
80179;SDS011;69505;52.134;5.438;2023-08-08T14:25:10;1.90;;;0.40;;
80179;SDS011;69505;52.134;5.438;2023-08-08T14:27:37;3.50;;;0.50;;
80179;SDS011;69505;52.134;5.438;2023-08-08T14:30:04;2.42;;;0.52;;
80179;SDS011;69505;52.134;5.438;2023-08-08T14:32:31;4.40;;;0.60;;
80179;SDS011;69505;52.134;5.438;2023-08-08T14:34:58;4.70;;;0.52;;
80179;SDS011;69505;52.134;5.438;2023-08-08T14:37:26;5.07;;;0.50;;
80179;SDS011;69505;52.134;5.438;2023-08-08T14:39:52;3.50;;;0.52;;
80179;SDS011;69505;52.134;5.438;2023-08-08T14:42:19;2.75;;;0.40;;
80179;SDS011;69505;52.134;5.438;2023-08-08T14:44:46;6.13;;;0.63;;
80179;SDS011;69505;52.134;5.438;2023-08-08T14:47:13;1.63;;;0.40;;
80179;SDS011;69505;52.134;5.438;2023-08-08T14:49:40;2.40;;;0.50;;
80179;SDS011;69505;52.134;5.438;2023-08-08T14:52:07;2.67;;;0.40;;
80179;SDS011;69505;52.134;5.438;2023-08-08T14:54:35;1.58;;;0.40;;
80179;SDS011;69505;52.134;5.438;2023-08-08T14:57:02;2.05;;;0.55;;